Terminal Aerodrome Forecast
Issued by NWS

Home | Current Version | Previous Version | Text Only | Print | Product List | Glossary On
Versions: 1 2 3 4 5 6 7 8 9 10 11 12 13 14 15 16 17 18
145
FTUS42 KTAE 242325
TAFVLD
TAF
KVLD 242325Z 2500/2524 12003KT P6SM BKN070
     FM251200 15003KT P6SM BKN025
     FM251500 16006KT P6SM BKN040=

USA.gov is the U.S. government's official web portal to all federal, state and local government web resources and services.